Terminal Aerodrome Forecast
Issued by NWS

Home | Current Version | Previous Version | Text Only | Print | Product List | Glossary On
Versions: 1 2 3 4 5 6 7 8 9 10 11 12 13 14 15 16 17 18 19 20 21 22 23 24 25 26 27 28 29 30 31 32 33 34 35
000
FTUS41 KBOX 020538
TAFFMH
TAF
KFMH 020538Z 0206/0306 VRB03KT P6SM SCT250
     FM021200 25006KT P6SM SCT130
     FM021400 23010KT P6SM BKN110
     FM021700 22014G22KT P6SM BKN080
     FM022000 22018G27KT P6SM SCT200
     FM030000 23017KT P6SM SCT200 WS020/23050KT=

USA.gov is the U.S. government's official web portal to all federal, state and local government web resources and services.